Time;durP1;ratioP1;P1;durP2;ratioP2;P2;SDS_P1;SDS_P2;PMS_P1;PMS_P2;Temp;Humidity;BMP_temperature;BMP_pressure;BME280_temperature;BME280_humidity;BME280_pressure;Samples;Min_cycle;Max_cycle;Signal;HPM_P1;HPM_P2
2023/12/13 00:00:41;;;;;;;;;3.50;1.50;;;;;11.67;76.84;99362.03;4962247;28;47967;-64
2023/12/13 00:03:06;;;;;;;;;3.75;1.75;;;;;11.63;77.03;99352.63;4939235;28;45791;-64
2023/12/13 00:05:31;;;;;;;;;2.00;2.00;;;;;11.61;76.80;99343.16;4949971;28;69577;-64
2023/12/13 00:07:56;;;;;;;;;3.25;1.00;;;;;11.60;76.80;99344.94;4944911;28;46067;-64
2023/12/13 00:10:22;;;;;;;;;2.75;1.00;;;;;11.58;76.57;99338.94;4944353;28;68502;-64
2023/12/13 00:12:47;;;;;;;;;1.75;1.00;;;;;11.56;77.10;99343.41;4957867;28;66292;-64
2023/12/13 00:15:12;;;;;;;;;5.25;3.00;;;;;11.56;77.04;99346.88;4942725;28;68089;-63
2023/12/13 00:17:38;;;;;;;;;6.00;1.00;;;;;11.56;77.11;99333.78;4946131;28;46864;-64
2023/12/13 00:20:05;;;;;;;;;2.00;1.00;;;;;11.57;77.02;99345.94;4946821;28;57571;-64
2023/12/13 00:22:31;;;;;;;;;1.00;1.00;;;;;11.58;76.52;99341.56;4944096;28;45493;-63
2023/12/13 00:24:57;;;;;;;;;0.75;0.75;;;;;11.58;76.33;99339.78;4940390;28;45605;-64
2023/12/13 00:27:22;;;;;;;;;2.50;2.00;;;;;11.56;76.60;99336.41;4940464;28;52226;-64
2023/12/13 00:29:47;;;;;;;;;5.75;1.00;;;;;11.55;76.54;99331.25;4942137;28;69414;-64
2023/12/13 00:32:13;;;;;;;;;2.00;1.00;;;;;11.53;76.53;99338.34;4940247;28;69648;-64
2023/12/13 00:34:38;;;;;;;;;2.00;1.00;;;;;11.51;76.54;99324.47;4965560;28;61657;-64
2023/12/13 00:37:03;;;;;;;;;2.00;1.00;;;;;11.50;76.69;99331.47;4935081;28;64370;-64
2023/12/13 00:39:28;;;;;;;;;1.50;1.25;;;;;11.48;76.44;99325.47;4937554;28;75479;-65
2023/12/13 00:41:54;;;;;;;;;1.50;1.00;;;;;11.45;76.48;99330.03;4937609;28;64408;-64
2023/12/13 00:44:19;;;;;;;;;6.00;1.00;;;;;11.45;76.46;99327.41;4939349;28;45498;-65
2023/12/13 00:46:45;;;;;;;;;4.75;1.50;;;;;11.44;76.31;99326.59;4937983;28;54850;-65
2023/12/13 00:49:10;;;;;;;;;3.25;0.50;;;;;11.41;76.22;99316.25;4946055;28;74619;-65
2023/12/13 00:51:35;;;;;;;;;4.50;1.75;;;;;11.40;76.58;99310.19;4949010;28;70880;-64
2023/12/13 00:54:01;;;;;;;;;4.75;2.50;;;;;11.41;76.72;99316.25;4943257;28;58457;-64
2023/12/13 00:56:28;;;;;;;;;3.25;1.00;;;;;11.40;76.82;99309.31;4939143;28;65537;-64
2023/12/13 00:58:53;;;;;;;;;5.00;1.25;;;;;11.39;76.63;99307.66;4937567;28;45533;-64
2023/12/13 01:01:18;;;;;;;;;3.75;0.50;;;;;11.35;76.72;99306.97;4939880;28;73168;-64
2023/12/13 01:03:44;;;;;;;;;3.00;0.75;;;;;11.35;76.48;99309.59;4940901;28;45679;-64
2023/12/13 01:06:09;;;;;;;;;3.50;1.00;;;;;11.33;76.60;99315.81;4938563;28;45356;-63
2023/12/13 01:08:38;;;;;;;;;3.00;1.50;;;;;11.31;76.53;99302.78;4938477;28;74237;-65
2023/12/13 01:11:10;;;;;;;;;3.00;2.00;;;;;11.28;76.75;99305.59;4939707;28;45493;-65
2023/12/13 01:13:36;;;;;;;;;6.00;1.25;;;;;11.27;76.60;99303.06;4943497;28;45390;-64
2023/12/13 01:16:02;;;;;;;;;6.00;1.25;;;;;11.24;76.63;99298.81;4937711;28;45277;-64
2023/12/13 01:18:27;;;;;;;;;0.75;0.75;;;;;11.24;76.83;99301.44;4946699;28;46058;-65
2023/12/13 01:20:53;;;;;;;;;5.00;1.00;;;;;11.23;76.66;99306.78;4944830;28;45294;-64
2023/12/13 01:23:18;;;;;;;;;6.00;1.75;;;;;11.19;76.90;99301.69;4940646;28;45574;-63
2023/12/13 01:25:45;;;;;;;;;6.50;1.00;;;;;11.19;76.59;99304.31;4931911;28;71428;-64
2023/12/13 01:28:10;;;;;;;;;3.75;1.00;;;;;11.19;77.13;99300.81;4936755;28;47138;-64
2023/12/13 01:30:36;;;;;;;;;3.00;1.00;;;;;11.19;76.95;99299.06;4947893;28;73171;-64
2023/12/13 01:33:02;;;;;;;;;4.50;1.25;;;;;11.16;76.66;99296.59;4942099;28;45497;-64
2023/12/13 01:35:28;;;;;;;;;5.75;2.00;;;;;11.15;76.88;99302.75;4943706;28;63502;-64
2023/12/13 01:37:53;;;;;;;;;2.00;1.25;;;;;11.13;76.89;99299.38;4937416;28;45735;-63
2023/12/13 01:40:18;;;;;;;;;2.00;1.00;;;;;11.14;77.27;99305.47;4937170;28;45520;-64
2023/12/13 01:42:44;;;;;;;;;4.25;0.75;;;;;11.12;76.91;99297.69;4939696;28;45384;-65
2023/12/13 01:45:10;;;;;;;;;4.00;1.00;;;;;11.12;76.73;99300.31;4937003;28;72082;-64
2023/12/13 01:47:36;;;;;;;;;3.00;1.00;;;;;11.11;76.91;99303.00;4942977;28;45639;-64
2023/12/13 01:50:02;;;;;;;;;3.00;1.00;;;;;11.09;76.92;99307.50;4934472;28;45628;-64
2023/12/13 01:52:28;;;;;;;;;3.00;1.00;;;;;11.07;77.20;99311.97;4942475;28;46172;-64
2023/12/13 01:54:54;;;;;;;;;1.00;1.00;;;;;11.05;76.68;99308.56;4941163;28;45612;-64
2023/12/13 01:57:19;;;;;;;;;2.50;1.00;;;;;11.05;76.89;99306.81;4941751;28;45784;-65
2023/12/13 01:59:44;;;;;;;;;4.75;1.00;;;;;11.04;77.00;99318.19;4946023;28;45534;-62
2023/12/13 02:02:10;;;;;;;;;4.00;1.75;;;;;11.02;76.66;99317.44;4945802;28;45489;-62
2023/12/13 02:04:38;;;;;;;;;3.25;2.00;;;;;11.02;76.59;99323.50;4942954;28;45677;-65
2023/12/13 02:07:03;;;;;;;;;2.00;1.00;;;;;11.05;76.94;99321.66;4944088;28;45401;-63
2023/12/13 02:09:28;;;;;;;;;2.25;1.25;;;;;11.10;76.98;99327.50;4940686;28;70070;-63
2023/12/13 02:11:54;;;;;;;;;3.50;2.00;;;;;11.15;76.66;99325.47;4958780;28;63866;-64
2023/12/13 02:14:19;;;;;;;;;4.00;1.00;;;;;11.23;76.34;99335.59;4941069;28;71006;-62
2023/12/13 02:16:45;;;;;;;;;3.00;1.00;;;;;11.30;76.43;99323.84;4945055;28;75389;-64
2023/12/13 02:19:10;;;;;;;;;3.00;1.00;;;;;11.35;76.28;99320.06;4960957;28;46190;-63
2023/12/13 02:21:36;;;;;;;;;4.50;0.25;;;;;11.37;76.16;99320.81;4943716;28;47287;-64
2023/12/13 02:24:04;;;;;;;;;3.50;2.00;;;;;11.39;75.88;99320.75;4941427;28;47252;-64
2023/12/13 02:26:29;;;;;;;;;5.25;1.50;;;;;11.40;75.90;99317.19;4940767;28;46514;-64
2023/12/13 02:28:54;;;;;;;;;2.25;1.25;;;;;11.38;75.60;99314.66;4941562;28;45297;-65
2023/12/13 02:31:21;;;;;;;;;3.00;1.00;;;;;11.35;75.81;99317.44;4941180;28;45482;-65
2023/12/13 02:33:46;;;;;;;;;4.25;1.00;;;;;11.37;75.75;99312.13;4941997;28;45936;-64
2023/12/13 02:36:12;;;;;;;;;2.00;1.00;;;;;11.34;75.87;99314.91;4938584;28;47146;-64
2023/12/13 02:38:40;;;;;;;;;5.00;1.00;;;;;11.31;75.83;99307.19;4941083;28;69360;-64
2023/12/13 02:41:05;;;;;;;;;4.00;0.25;;;;;11.31;75.50;99310.66;4947243;28;45472;-64
2023/12/13 02:43:30;;;;;;;;;1.50;1.00;;;;;11.29;75.80;99309.88;4940929;28;61782;-64
2023/12/13 02:45:56;;;;;;;;;2.00;1.00;;;;;11.28;75.66;99297.75;4945036;28;46979;-63
2023/12/13 02:48:21;;;;;;;;;1.50;1.00;;;;;11.23;75.50;99291.91;4940372;28;45505;-64
2023/12/13 02:50:48;;;;;;;;;2.00;1.00;;;;;11.17;75.70;99286.97;4944408;28;46641;-63
2023/12/13 02:53:13;;;;;;;;;2.50;1.00;;;;;11.12;75.71;99287.22;4943415;28;45571;-64
2023/12/13 02:55:38;;;;;;;;;7.25;1.75;;;;;11.08;75.56;99283.06;4942761;28;74716;-64
2023/12/13 02:58:04;;;;;;;;;2.50;1.25;;;;;11.05;75.91;99282.38;4942760;28;70331;-65
2023/12/13 03:00:30;;;;;;;;;2.75;1.25;;;;;11.01;75.84;99279.06;4942876;28;59961;-64
2023/12/13 03:02:58;;;;;;;;;2.75;1.00;;;;;10.95;75.94;99280.25;4955573;28;63739;-64
2023/12/13 03:05:24;;;;;;;;;3.75;1.00;;;;;10.93;75.94;99286.50;4958068;28;53178;-65
2023/12/13 03:07:50;;;;;;;;;2.50;1.75;;;;;10.90;76.12;99286.66;4950741;28;45346;-65
2023/12/13 03:10:15;;;;;;;;;3.00;2.00;;;;;10.86;76.13;99280.72;4950195;28;58287;-63
2023/12/13 03:12:41;;;;;;;;;4.50;1.00;;;;;10.85;75.88;99278.19;4960725;28;45301;-63
2023/12/13 03:15:07;;;;;;;;;1.00;0.00;;;;;10.81;75.78;99267.03;4948324;28;46123;-64
2023/12/13 03:17:32;;;;;;;;;3.00;0.75;;;;;10.78;75.76;99270.66;4945515;28;45537;-63
2023/12/13 03:19:58;;;;;;;;;0.00;0.00;;;;;10.76;76.17;99259.41;4948228;28;47103;-63
2023/12/13 03:22:23;;;;;;;;;3.00;0.25;;;;;10.74;75.93;99266.50;4943925;28;55683;-64
2023/12/13 03:24:51;;;;;;;;;3.75;1.00;;;;;10.73;76.37;99263.94;4946651;28;45314;-64
2023/12/13 03:27:16;;;;;;;;;2.00;1.00;;;;;10.71;76.17;99269.28;4943082;28;45650;-64
2023/12/13 03:29:41;;;;;;;;;2.00;1.00;;;;;10.68;76.04;99260.72;4943075;28;60906;-64
2023/12/13 03:32:07;;;;;;;;;1.00;1.00;;;;;10.68;76.22;99260.72;4947887;28;45407;-65
2023/12/13 03:34:32;;;;;;;;;1.50;0.00;;;;;10.65;76.22;99261.75;4950514;28;45298;-64
2023/12/13 03:36:57;;;;;;;;;2.00;0.75;;;;;10.62;76.19;99260.13;4945296;28;45528;-64
2023/12/13 03:39:23;;;;;;;;;3.25;1.00;;;;;10.62;76.05;99260.13;4930355;28;71152;-64
2023/12/13 03:41:48;;;;;;;;;4.50;1.00;;;;;10.61;76.02;99263.66;4946353;28;45624;-65
2023/12/13 03:44:13;;;;;;;;;4.75;2.00;;;;;10.60;76.30;99254.13;4948356;28;58338;-64
2023/12/13 03:46:39;;;;;;;;;5.00;0.25;;;;;10.60;76.20;99253.28;4940463;28;72006;-64
2023/12/13 03:49:04;;;;;;;;;4.00;1.00;;;;;10.59;76.40;99252.44;4947104;28;49567;-65
2023/12/13 03:51:29;;;;;;;;;2.75;1.00;;;;;10.59;76.13;99251.59;4943711;28;59444;-63
2023/12/13 03:53:55;;;;;;;;;0.00;0.00;;;;;10.60;76.42;99255.91;4946857;28;52850;-64
2023/12/13 03:56:21;;;;;;;;;2.75;0.75;;;;;10.62;76.19;99254.03;4940741;28;45447;-64
2023/12/13 03:58:46;;;;;;;;;1.25;1.25;;;;;10.62;76.38;99249.69;4944685;28;51535;-64
2023/12/13 04:01:11;;;;;;;;;1.50;1.00;;;;;10.62;76.26;99247.06;4944519;28;45628;-64
2023/12/13 04:03:37;;;;;;;;;1.25;0.75;;;;;10.66;76.53;99249.50;4938321;28;58838;-64
2023/12/13 04:06:03;;;;;;;;;0.50;0.00;;;;;10.68;76.26;99252.88;4938045;28;62872;-65
2023/12/13 04:08:28;;;;;;;;;7.00;1.75;;;;;10.69;76.22;99249.34;4952135;28;45416;-64
2023/12/13 04:10:53;;;;;;;;;1.75;0.25;;;;;10.69;76.30;99251.97;4939429;28;60181;-64
2023/12/13 04:13:19;;;;;;;;;3.00;1.00;;;;;10.68;76.53;99248.50;4938809;28;73680;-64
2023/12/13 04:15:44;;;;;;;;;3.75;0.75;;;;;10.65;76.34;99251.28;4935910;28;69749;-64
2023/12/13 04:18:10;;;;;;;;;1.00;1.00;;;;;10.65;76.42;99251.28;4941255;28;45497;-64
2023/12/13 04:20:36;;;;;;;;;3.25;2.00;;;;;10.62;76.59;99251.41;4942873;28;45739;-64
2023/12/13 04:23:01;;;;;;;;;4.00;2.00;;;;;10.60;76.49;99246.25;4945717;28;65915;-64
2023/12/13 04:25:26;;;;;;;;;2.50;0.50;;;;;10.61;76.32;99254.97;4940967;28;45355;-64
2023/12/13 04:27:51;;;;;;;;;6.00;1.25;;;;;10.60;76.64;99250.66;4937362;28;68196;-64
2023/12/13 04:30:17;;;;;;;;;3.00;1.00;;;;;10.59;76.78;99249.81;4937643;28;45525;-64
2023/12/13 04:32:42;;;;;;;;;0.00;0.00;;;;;10.61;77.08;99252.38;4943952;28;47649;-64
2023/12/13 04:35:08;;;;;;;;;3.00;1.00;;;;;10.68;76.77;99252.88;4958676;28;63841;-64
2023/12/13 04:37:34;;;;;;;;;3.25;0.75;;;;;10.71;76.76;99255.34;4941019;28;45501;-64
2023/12/13 04:40:00;;;;;;;;;3.50;1.00;;;;;10.74;76.71;99255.19;4933369;28;45701;-64
2023/12/13 04:42:25;;;;;;;;;2.00;2.00;;;;;10.80;76.90;99255.72;4940391;28;46938;-64
2023/12/13 04:44:50;;;;;;;;;1.25;1.00;;;;;10.83;76.38;99252.09;4938852;28;50277;-64
2023/12/13 04:47:16;;;;;;;;;3.00;2.00;;;;;10.84;76.51;99248.56;4936937;28;69460;-63
2023/12/13 04:49:41;;;;;;;;;1.25;1.25;;;;;10.82;76.67;99245.19;4940015;28;46346;-64
2023/12/13 04:52:07;;;;;;;;;4.00;0.00;;;;;10.81;76.24;99243.47;4940584;28;71889;-63
2023/12/13 04:54:32;;;;;;;;;1.00;1.00;;;;;10.81;76.29;99240.88;4939598;28;45507;-65
2023/12/13 04:56:57;;;;;;;;;3.00;1.00;;;;;10.78;76.42;99234.03;4942897;28;67847;-64
2023/12/13 04:59:23;;;;;;;;;1.00;0.75;;;;;10.76;76.40;99229.78;4945397;28;61276;-61
2023/12/13 05:01:48;;;;;;;;;1.25;0.00;;;;;10.73;76.18;99230.81;4938706;28;45509;-64
2023/12/13 05:04:14;;;;;;;;;1.50;1.00;;;;;10.70;76.31;99227.50;4942004;28;46005;-63
2023/12/13 05:06:39;;;;;;;;;1.00;0.00;;;;;10.69;76.26;99239.72;4943913;28;56464;-64
2023/12/13 05:09:04;;;;;;;;;8.25;1.00;;;;;10.69;76.29;99231.03;4943721;28;45644;-63
2023/12/13 05:11:30;;;;;;;;;1.75;0.00;;;;;10.67;76.25;99236.34;4949496;28;47158;-66
2023/12/13 05:13:55;;;;;;;;;4.00;0.75;;;;;10.69;76.53;99231.03;4945539;28;64489;-63
2023/12/13 05:16:20;;;;;;;;;1.00;1.00;;;;;10.71;76.27;99234.41;4945123;28;63283;-64
2023/12/13 05:18:46;;;;;;;;;5.00;1.00;;;;;10.74;76.73;99229.88;4940411;28;69821;-63
2023/12/13 05:21:11;;;;;;;;;1.75;1.00;;;;;10.75;76.77;99223.72;4943664;28;64504;-63
2023/12/13 05:23:37;;;;;;;;;2.50;1.00;;;;;10.79;76.37;99225.25;4944492;28;73019;-65
2023/12/13 05:26:02;;;;;;;;;3.00;1.75;;;;;10.85;76.13;99231.91;4941283;28;52999;-64
2023/12/13 05:28:28;;;;;;;;;2.50;0.50;;;;;10.89;76.32;99224.75;4948634;28;45573;-63
2023/12/13 05:30:53;;;;;;;;;3.50;0.00;;;;;10.91;75.97;99218.53;4949782;28;46250;-63
2023/12/13 05:33:19;;;;;;;;;1.50;0.25;;;;;10.93;75.92;99221.91;4945331;28;45452;-65
2023/12/13 05:35:44;;;;;;;;;1.00;1.00;;;;;10.93;75.72;99221.91;4946043;28;54543;-64
2023/12/13 05:38:10;;;;;;;;;0.50;0.00;;;;;10.91;75.43;99217.69;4945969;28;45390;-64
2023/12/13 05:40:35;;;;;;;;;4.50;0.00;;;;;10.89;75.64;99228.25;4949590;28;46311;-65
2023/12/13 05:43:01;;;;;;;;;0.00;0.00;;;;;10.86;75.70;99223.16;4944981;28;45625;-65
2023/12/13 05:45:26;;;;;;;;;1.00;0.50;;;;;10.89;75.72;99223.00;4949125;28;45568;-63
2023/12/13 05:47:51;;;;;;;;;1.00;1.00;;;;;10.89;75.82;99223.00;4946432;28;45346;-65
2023/12/13 05:50:17;;;;;;;;;1.00;0.75;;;;;10.91;75.28;99212.47;4950012;28;74307;-64
2023/12/13 05:52:42;;;;;;;;;0.25;0.25;;;;;10.90;75.24;99211.59;4960312;28;45522;-65
2023/12/13 05:55:08;;;;;;;;;1.00;1.00;;;;;10.90;75.55;99210.75;4949007;28;45469;-64
2023/12/13 05:57:33;;;;;;;;;5.25;1.00;;;;;10.86;75.67;99210.06;4942719;28;45420;-65
2023/12/13 05:59:58;;;;;;;;;2.00;1.00;;;;;10.81;75.29;99199.00;4946567;28;45506;-63
2023/12/13 06:02:24;;;;;;;;;3.50;1.00;;;;;10.76;75.53;99201.84;4944329;28;55179;-64
2023/12/13 06:04:50;;;;;;;;;2.75;1.00;;;;;10.73;75.40;99198.53;4944157;28;45520;-64
2023/12/13 06:07:16;;;;;;;;;3.00;1.00;;;;;10.67;75.81;99196.25;4945701;28;46298;-64
2023/12/13 06:09:42;;;;;;;;;2.50;1.00;;;;;10.67;75.45;99207.56;4945824;28;48834;-64
2023/12/13 06:12:07;;;;;;;;;4.00;1.00;;;;;10.63;75.78;99203.41;4944947;28;45571;-64
2023/12/13 06:14:33;;;;;;;;;1.50;0.75;;;;;10.60;75.74;99204.41;4953666;28;45381;-64
2023/12/13 06:16:58;;;;;;;;;2.25;1.00;;;;;10.56;75.86;99210.72;4938917;28;45584;-64
2023/12/13 06:19:26;;;;;;;;;1.00;0.00;;;;;10.52;75.79;99213.59;4936220;28;45630;-64
2023/12/13 06:21:52;;;;;;;;;5.00;1.75;;;;;10.48;75.89;99210.28;4944096;28;45444;-64
2023/12/13 06:24:17;;;;;;;;;1.50;0.75;;;;;10.45;75.74;99205.22;4943969;28;45712;-64
2023/12/13 06:26:43;;;;;;;;;2.50;1.25;;;;;10.42;76.15;99202.75;4944575;28;69150;-65
2023/12/13 06:29:11;;;;;;;;;2.50;1.00;;;;;10.38;75.87;99209.91;4947943;28;47750;-64
2023/12/13 06:31:37;;;;;;;;;1.25;0.75;;;;;10.38;76.11;99209.06;4956048;28;45883;-64
2023/12/13 06:34:02;;;;;;;;;1.00;1.00;;;;;10.36;75.54;99214.38;4947339;28;45424;-64
2023/12/13 06:36:27;;;;;;;;;2.00;1.00;;;;;10.35;75.97;99212.66;4951865;28;45519;-63
2023/12/13 06:38:53;;;;;;;;;6.00;1.50;;;;;10.32;75.80;99211.97;4940338;28;45493;-64
2023/12/13 06:41:18;;;;;;;;;1.00;1.00;;;;;10.31;76.00;99212.91;4946135;28;72948;-64
2023/12/13 06:43:43;;;;;;;;;1.00;1.00;;;;;10.30;76.12;99216.41;4940513;28;45674;-64
2023/12/13 06:46:09;;;;;;;;;1.00;1.00;;;;;10.28;75.82;99216.50;4938687;28;45527;-63
2023/12/13 06:48:34;;;;;;;;;3.00;2.00;;;;;10.26;75.88;99218.34;4950698;28;71197;-66
2023/12/13 06:50:59;;;;;;;;;2.50;1.00;;;;;10.25;76.18;99220.13;4959749;28;71487;-64
2023/12/13 06:53:25;;;;;;;;;3.25;0.75;;;;;10.19;75.78;99215.19;4950113;28;68298;-65
2023/12/13 06:55:50;;;;;;;;;1.50;1.00;;;;;10.20;75.97;99222.13;4945518;28;62992;-67
2023/12/13 06:58:15;;;;;;;;;1.50;0.75;;;;;10.20;75.71;99224.72;4942983;28;47470;-63
2023/12/13 07:00:41;;;;;;;;;5.50;1.00;;;;;10.18;76.26;99226.56;4937169;28;59583;-63
2023/12/13 07:03:06;;;;;;;;;2.00;1.00;;;;;10.16;76.07;99222.31;4940701;28;66116;-63
2023/12/13 07:05:31;;;;;;;;;4.00;1.00;;;;;10.16;76.23;99224.94;4949977;28;72252;-64
2023/12/13 07:07:57;;;;;;;;;2.50;0.50;;;;;10.17;75.97;99224.88;4942408;28;74670;-64
2023/12/13 07:10:22;;;;;;;;;3.00;1.25;;;;;10.18;76.10;99221.34;4941307;28;73207;-61
2023/12/13 07:12:48;;;;;;;;;3.25;2.00;;;;;10.25;75.96;99224.47;4939848;28;70488;-63
2023/12/13 07:15:14;;;;;;;;;2.75;1.00;;;;;10.30;75.86;99221.66;4942199;28;45399;-64
2023/12/13 07:17:42;;;;;;;;;3.50;1.25;;;;;10.34;75.88;99229.31;4942631;28;46682;-61
2023/12/13 07:20:08;;;;;;;;;2.75;1.50;;;;;10.36;75.46;99229.22;4943663;28;45500;-62
2023/12/13 07:22:33;;;;;;;;;5.75;1.00;;;;;10.36;75.60;99217.00;4939011;28;45412;-71
2023/12/13 07:24:59;;;;;;;;;1.25;1.25;;;;;10.38;75.54;99230.81;4942294;28;45511;-62
2023/12/13 07:27:24;;;;;;;;;1.75;0.00;;;;;10.41;75.67;99224.59;4935888;28;75518;-64
2023/12/13 07:29:50;;;;;;;;;4.25;2.25;;;;;10.42;75.47;99231.53;4946969;28;45512;-64
2023/12/13 07:32:16;;;;;;;;;1.00;1.00;;;;;10.45;75.40;99231.38;4946583;28;45402;-62
2023/12/13 07:34:43;;;;;;;;;2.00;1.00;;;;;10.47;75.28;99232.13;4941979;28;45494;-64
2023/12/13 07:37:08;;;;;;;;;3.00;2.00;;;;;10.49;74.95;99237.28;4938546;28;45513;-63
2023/12/13 07:39:36;;;;;;;;;4.00;2.00;;;;;10.51;75.20;99243.28;4948366;28;67075;-63
2023/12/13 07:42:03;;;;;;;;;2.25;1.00;;;;;10.54;74.96;99243.13;4959684;28;45573;-64
2023/12/13 07:44:30;;;;;;;;;2.25;0.00;;;;;10.53;74.89;99239.66;4944124;28;45600;-63
2023/12/13 07:46:55;;;;;;;;;0.75;0.75;;;;;10.53;74.54;99244.88;4937579;28;48313;-63
2023/12/13 07:49:21;;;;;;;;;3.00;1.00;;;;;10.53;74.60;99242.28;4941284;28;74222;-64
2023/12/13 07:51:46;;;;;;;;;3.00;1.00;;;;;10.53;74.60;99250.13;4940533;28;65041;-63
2023/12/13 07:54:15;;;;;;;;;4.25;2.00;;;;;10.56;74.43;99242.13;4937312;28;45568;-64
2023/12/13 07:56:41;;;;;;;;;3.50;0.50;;;;;10.59;73.87;99252.44;4938666;28;45312;-65
2023/12/13 07:59:06;;;;;;;;;4.00;2.00;;;;;10.63;74.33;99250.50;4943542;28;45434;-65
2023/12/13 08:01:31;;;;;;;;;2.00;1.00;;;;;10.67;74.47;99259.88;4940156;28;68226;-65
2023/12/13 08:03:57;;;;;;;;;2.50;1.75;;;;;10.67;74.13;99262.50;4948291;28;45595;-64
2023/12/13 08:06:22;;;;;;;;;4.75;1.00;;;;;10.66;74.00;99266.06;4937685;28;45618;-65
2023/12/13 08:08:47;;;;;;;;;3.50;1.75;;;;;10.67;73.59;99269.50;4939910;28;73325;-64
2023/12/13 08:11:13;;;;;;;;;3.00;1.00;;;;;10.70;74.17;99270.19;4962100;28;65759;-64
2023/12/13 08:13:38;;;;;;;;;4.75;1.00;;;;;10.74;73.43;99276.13;4955939;28;72729;-65
2023/12/13 08:16:05;;;;;;;;;2.00;1.00;;;;;10.76;73.42;99274.28;4943700;28;45552;-65
2023/12/13 08:18:30;;;;;;;;;2.00;1.50;;;;;10.81;73.36;99278.34;4945170;28;45493;-65
2023/12/13 08:20:55;;;;;;;;;2.75;1.00;;;;;10.87;73.30;99284.19;4955543;28;65307;-65
2023/12/13 08:23:21;;;;;;;;;5.00;1.50;;;;;10.93;73.05;99281.25;4953544;28;71471;-64
2023/12/13 08:25:47;;;;;;;;;3.75;1.00;;;;;10.95;73.08;99295.94;4948545;28;76072;-65
2023/12/13 08:28:12;;;;;;;;;1.50;1.00;;;;;10.96;73.12;99295.03;4947218;28;45766;-65
2023/12/13 08:30:38;;;;;;;;;3.00;1.75;;;;;10.99;72.61;99300.09;4944306;28;57206;-63
2023/12/13 08:33:03;;;;;;;;;1.25;1.25;;;;;10.99;72.31;99294.84;4941385;28;45961;-63
2023/12/13 08:35:29;;;;;;;;;4.00;2.00;;;;;11.01;72.73;99295.66;4940618;28;74828;-64
2023/12/13 08:37:54;;;;;;;;;6.25;1.75;;;;;11.00;72.58;99299.19;4922764;28;67537;-64
2023/12/13 08:40:20;;;;;;;;;6.00;1.50;;;;;11.04;72.58;99297.25;4951112;28;45536;-64
2023/12/13 08:42:46;;;;;;;;;5.00;1.00;;;;;11.03;72.12;99295.56;4939509;28;45607;-63
2023/12/13 08:45:11;;;;;;;;;2.00;1.00;;;;;11.00;72.05;99296.56;4944067;28;46191;-64
2023/12/13 08:47:37;;;;;;;;;1.25;1.00;;;;;10.98;71.54;99297.59;4958541;28;45427;-65
2023/12/13 08:50:03;;;;;;;;;1.00;1.00;;;;;11.01;71.79;99305.25;4939792;28;45476;-63
2023/12/13 08:52:29;;;;;;;;;2.75;1.00;;;;;11.00;72.28;99298.34;4938654;28;45257;-67
2023/12/13 08:54:54;;;;;;;;;3.50;2.00;;;;;11.03;71.94;99306.03;4939102;28;46394;-66
2023/12/13 08:57:19;;;;;;;;;1.00;1.00;;;;;11.06;72.03;99300.63;4938245;28;45568;-64
2023/12/13 08:59:45;;;;;;;;;6.25;2.00;;;;;11.11;71.68;99305.63;4939788;28;68412;-63
2023/12/13 09:02:10;;;;;;;;;2.00;2.00;;;;;11.16;71.80;99303.63;4939524;28;47439;-68
2023/12/13 09:04:35;;;;;;;;;5.50;2.00;;;;;11.21;71.84;99310.31;4935848;28;45565;-66
2023/12/13 09:07:01;;;;;;;;;1.00;0.00;;;;;11.25;71.57;99304.91;4934274;28;65804;-66
2023/12/13 09:09:26;;;;;;;;;2.50;2.25;;;;;11.27;71.35;99309.13;4943599;28;59818;-67
2023/12/13 09:11:51;;;;;;;;;1.00;1.00;;;;;11.31;71.32;99312.44;4937959;28;63625;-66
2023/12/13 09:14:17;;;;;;;;;6.25;1.25;;;;;11.31;71.19;99315.88;4941768;28;63466;-66
2023/12/13 09:16:42;;;;;;;;;3.25;1.75;;;;;11.34;70.91;99320.13;4936662;28;71614;-66
2023/12/13 09:19:07;;;;;;;;;3.00;2.00;;;;;11.34;71.03;99314.91;4937242;28;69703;-67
2023/12/13 09:21:33;;;;;;;;;2.00;2.00;;;;;11.38;70.81;99321.66;4937863;28;45524;-66
2023/12/13 09:23:58;;;;;;;;;1.75;1.50;;;;;11.37;71.01;99318.19;4941535;28;61552;-66
2023/12/13 09:26:23;;;;;;;;;1.50;0.75;;;;;11.41;70.89;99316.25;4945175;28;65120;-66
2023/12/13 09:28:49;;;;;;;;;2.00;1.00;;;;;11.45;70.77;99319.56;4940384;28;45464;-67
2023/12/13 09:31:14;;;;;;;;;1.00;1.00;;;;;11.49;70.59;99318.47;4942550;28;45743;-66
2023/12/13 09:33:40;;;;;;;;;3.00;2.00;;;;;11.48;70.61;99322.03;4938532;28;45478;-67
2023/12/13 09:36:06;;;;;;;;;3.00;1.25;;;;;11.51;70.24;99321.84;4951314;28;53902;-68
2023/12/13 09:38:32;;;;;;;;;2.00;1.00;;;;;11.49;69.92;99328.94;4940244;28;45315;-69
2023/12/13 09:40:59;;;;;;;;;4.25;1.00;;;;;11.49;70.53;99331.56;4936946;28;73218;-67
2023/12/13 09:43:26;;;;;;;;;3.50;1.00;;;;;11.52;70.21;99327.00;4957699;28;75498;-69
2023/12/13 09:45:53;;;;;;;;;1.50;1.25;;;;;11.56;70.40;99331.16;4941935;28;45421;-70
2023/12/13 09:48:22;;;;;;;;;4.25;2.00;;;;;11.57;70.25;99329.38;4936745;28;45346;-68
2023/12/13 09:50:52;;;;;;;;;2.25;2.25;;;;;11.59;70.26;99333.59;4956996;28;45556;-67
2023/12/13 09:53:20;;;;;;;;;2.50;1.00;;;;;11.59;70.42;99343.25;4937635;28;46190;-68
2023/12/13 09:55:46;;;;;;;;;3.00;3.00;;;;;11.54;70.34;99343.50;4942459;28;45759;-68
2023/12/13 09:58:12;;;;;;;;;2.25;1.50;;;;;11.55;70.04;99346.97;4939952;28;46263;-68
2023/12/13 10:00:37;;;;;;;;;5.00;3.75;;;;;11.55;70.42;99337.31;4942169;28;45229;-68
2023/12/13 10:03:02;;;;;;;;;5.00;3.00;;;;;11.60;70.17;99350.19;4927701;28;47246;-68
2023/12/13 10:05:28;;;;;;;;;4.50;2.00;;;;;11.67;70.33;99346.31;4937207;28;62025;-68
2023/12/13 10:08:00;;;;;;;;;2.00;2.00;;;;;11.78;70.39;99353.59;4939439;28;45979;-66
2023/12/13 10:10:29;;;;;;;;;5.00;2.00;;;;;11.87;69.80;99353.09;4943395;28;45590;-68
2023/12/13 10:12:54;;;;;;;;;2.25;2.00;;;;;11.95;69.69;99358.81;4924742;28;47399;-66
2023/12/13 10:15:20;;;;;;;;;2.25;2.25;;;;;12.05;69.52;99360.91;4942070;28;45487;-65
2023/12/13 10:17:45;;;;;;;;;6.00;2.00;;;;;12.11;69.65;99356.19;4942279;28;65252;-66
2023/12/13 10:20:10;;;;;;;;;3.00;2.00;;;;;12.16;68.99;99358.53;4942934;28;56846;-67
2023/12/13 10:22:38;;;;;;;;;2.00;1.75;;;;;12.21;69.20;99360.91;4940885;28;46439;-66
2023/12/13 10:25:04;;;;;;;;;3.75;2.00;;;;;12.24;68.92;99364.19;4942579;28;45505;-66
2023/12/13 10:27:30;;;;;;;;;3.25;2.00;;;;;12.23;69.17;99365.13;4942951;28;45753;-65
2023/12/13 10:29:55;;;;;;;;;3.00;2.25;;;;;12.25;68.94;99362.41;4942713;28;71078;-67
2023/12/13 10:32:21;;;;;;;;;6.25;3.75;;;;;12.27;69.34;99368.41;4942620;28;74169;-67
2023/12/13 10:34:47;;;;;;;;;5.75;2.00;;;;;12.28;68.96;99370.13;4937809;28;45259;-65
2023/12/13 10:37:12;;;;;;;;;3.25;2.00;;;;;12.27;68.56;99377.16;4940047;28;45463;-65
2023/12/13 10:39:42;;;;;;;;;1.00;1.00;;;;;12.27;68.84;99373.66;4944393;28;45402;-64
2023/12/13 10:42:08;;;;;;;;;3.00;2.00;;;;;12.25;68.61;99388.63;4942545;28;49225;-63
2023/12/13 10:44:34;;;;;;;;;5.75;2.00;;;;;12.22;68.62;99392.28;4934927;28;56011;-65
2023/12/13 10:47:01;;;;;;;;;4.75;1.00;;;;;12.25;68.88;99392.13;4933686;28;69497;-67
2023/12/13 10:49:27;;;;;;;;;4.00;2.00;;;;;12.26;68.40;99393.81;4942622;28;45347;-67
2023/12/13 10:51:53;;;;;;;;;3.50;1.50;;;;;12.24;68.60;99397.47;4940274;28;77715;-64
2023/12/13 10:54:19;;;;;;;;;5.00;2.00;;;;;12.23;68.17;99396.59;4942103;28;64006;-65
2023/12/13 10:56:45;;;;;;;;;6.00;2.75;;;;;12.17;68.29;99393.50;4946459;28;45803;-65
2023/12/13 10:59:11;;;;;;;;;2.50;2.00;;;;;12.14;68.55;99389.25;4941909;28;67340;-64
2023/12/13 11:01:42;;;;;;;;;13.25;8.75;;;;;12.10;68.59;99385.94;4943735;28;73535;-65
2023/12/13 11:04:10;;;;;;;;;34.25;25.75;;;;;12.07;68.46;99391.34;4942741;28;45372;-67
2023/12/13 11:06:36;;;;;;;;;3.50;3.00;;;;;12.04;68.19;99391.53;4938485;28;45447;-64
2023/12/13 11:09:17;;;;;;;;;4.75;2.00;;;;;12.02;68.52;99397.78;4941984;28;45424;-66
2023/12/13 11:11:42;;;;;;;;;4.75;2.00;;;;;12.07;68.82;99395.75;4911972;28;47606;-66
2023/12/13 11:14:09;;;;;;;;;2.00;2.00;;;;;12.15;68.32;99402.28;4938739;28;45405;-66
2023/12/13 11:16:44;;;;;;;;;3.50;1.75;;;;;12.21;68.50;99400.25;4942256;28;45576;-65
2023/12/13 11:19:12;;;;;;;;;2.50;2.00;;;;;12.27;68.16;99395.50;4940048;28;45503;-71
2023/12/13 11:21:38;;;;;;;;;4.25;4.00;;;;;12.35;68.17;99405.56;4944382;28;45520;-67
2023/12/13 11:24:12;;;;;;;;;4.50;3.25;;;;;12.39;68.03;99406.25;4940224;28;45502;-67
2023/12/13 11:26:42;;;;;;;;;3.00;3.00;;;;;12.42;67.62;99404.28;4947149;28;45505;-66